Time;durP1;ratioP1;P1;durP2;ratioP2;P2;SDS_P1;SDS_P2;PMS_P1;PMS_P2;Temp;Humidity;BMP_temperature;BMP_pressure;BME280_temperature;BME280_humidity;BME280_pressure;Samples;Min_cycle;Max_cycle;Signal;HPM_P1;HPM_P2
2022/07/19 00:00:16;;;;;;;1.33;0.90;;;;;;;29.85;33.79;101168.53;4865556;29;20559;-71
2022/07/19 00:02:59;;;;;;;1.25;0.90;;;;;;;29.86;33.57;101172.91;4875757;29;20056;-73
2022/07/19 00:05:28;;;;;;;3.05;1.00;;;;;;;29.91;34.25;101169.19;4872993;29;20057;-73
2022/07/19 00:07:58;;;;;;;1.67;0.70;;;;;;;29.96;34.50;101173.41;4873030;29;20113;-74
2022/07/19 00:10:26;;;;;;;2.88;0.80;;;;;;;29.98;33.95;101165.31;4872063;29;20049;-75
2022/07/19 00:12:55;;;;;;;1.58;0.82;;;;;;;30.01;33.03;101157.19;4874358;29;20567;-73
2022/07/19 00:15:23;;;;;;;1.67;0.93;;;;;;;30.02;33.85;101157.09;4874467;29;20048;-72
2022/07/19 00:17:52;;;;;;;1.58;0.60;;;;;;;30.06;33.11;101160.50;4872823;29;20045;-72
2022/07/19 00:20:22;;;;;;;2.03;0.85;;;;;;;30.00;33.87;101145.63;4874741;29;20053;-74
2022/07/19 00:22:52;;;;;;;1.15;0.70;;;;;;;30.11;33.90;101149.63;4864629;29;20056;-74
2022/07/19 00:25:22;;;;;;;1.25;0.70;;;;;;;30.13;33.93;101150.41;4857995;29;20516;-72
2022/07/19 00:27:50;;;;;;;1.63;0.60;;;;;;;30.11;33.85;101147.81;4855184;29;20053;-73
2022/07/19 00:30:19;;;;;;;1.38;0.70;;;;;;;30.07;33.26;101143.53;4857348;29;20115;-72
2022/07/19 00:32:47;;;;;;;2.67;0.73;;;;;;;30.04;33.52;101135.69;4845687;29;20087;-73
2022/07/19 00:35:16;;;;;;;1.27;0.70;;;;;;;30.03;33.93;101137.50;4847706;29;20088;-73
2022/07/19 00:37:44;;;;;;;0.88;0.50;;;;;;;30.01;33.59;101138.50;4857941;29;20045;-72
2022/07/19 00:40:14;;;;;;;2.50;0.80;;;;;;;29.98;34.10;101131.47;4854982;29;20057;-73
2022/07/19 00:42:45;;;;;;;1.00;0.70;;;;;;;29.92;33.90;101126.44;4856649;29;20065;-72
2022/07/19 00:45:14;;;;;;;4.15;0.68;;;;;;;29.78;33.50;101120.84;4852246;29;20589;-72
2022/07/19 00:47:42;;;;;;;1.58;0.80;;;;;;;29.69;34.28;101114.16;4857838;29;20152;-73
2022/07/19 00:50:11;;;;;;;2.35;0.70;;;;;;;29.68;34.52;101115.06;4860064;29;20132;-72
2022/07/19 00:52:41;;;;;;;1.27;0.70;;;;;;;29.70;35.06;101121.19;4849303;29;20070;-72
2022/07/19 00:55:11;;;;;;;1.73;0.73;;;;;;;29.73;34.04;101110.38;4853749;29;20560;-72
2022/07/19 00:57:41;;;;;;;0.80;0.60;;;;;;;29.77;33.91;101111.97;4858606;29;20065;-72
2022/07/19 01:00:13;;;;;;;2.42;0.82;;;;;;;29.79;34.18;101109.25;4853633;29;20057;-71
2022/07/19 01:02:42;;;;;;;0.95;0.70;;;;;;;29.78;35.75;101107.50;4859495;29;20104;-72
2022/07/19 01:05:15;;;;;;;3.13;0.73;;;;;;;29.77;34.44;101106.66;4864392;29;20057;-71
2022/07/19 01:07:43;;;;;;;2.17;0.57;;;;;;;29.72;33.78;101099.81;4854991;29;20057;-71
2022/07/19 01:10:14;;;;;;;2.00;0.65;;;;;;;29.65;34.44;101092.03;4850786;29;20054;-70
2022/07/19 01:12:43;;;;;;;3.15;0.80;;;;;;;29.60;34.61;101087.84;4856221;29;20635;-72
2022/07/19 01:15:18;;;;;;;1.83;0.70;;;;;;;29.53;34.49;101086.41;4853099;29;20057;-72
2022/07/19 01:17:47;;;;;;;2.40;0.68;;;;;;;29.54;35.94;101077.47;4856223;29;20137;-71
2022/07/19 01:20:16;;;;;;;2.35;0.55;;;;;;;29.53;33.88;101081.06;4855209;29;20109;-71
2022/07/19 01:22:47;;;;;;;2.05;0.70;;;;;;;29.49;34.00;101075.00;4869143;28;20068;-72
2022/07/19 01:25:16;;;;;;;1.58;0.80;;;;;;;29.42;33.47;101063.75;4875932;29;20064;-71
2022/07/19 01:27:47;;;;;;;2.67;1.30;;;;;;;29.32;33.24;101057.09;4872682;29;20112;-72
2022/07/19 01:30:18;;;;;;;1.75;0.77;;;;;;;29.27;34.89;101061.75;4870362;29;20470;-72
2022/07/19 01:32:46;;;;;;;0.77;0.50;;;;;;;29.25;34.72;101055.59;4879173;29;20139;-72
2022/07/19 01:35:15;;;;;;;0.98;0.43;;;;;;;29.24;34.35;101045.91;4873815;29;20041;-71
2022/07/19 01:37:46;;;;;;;3.05;0.60;;;;;;;29.21;34.80;101035.38;4870914;29;20053;-72
2022/07/19 01:40:17;;;;;;;0.52;0.52;;;;;;;29.21;35.75;101028.25;4867653;29;20052;-71
2022/07/19 01:42:46;;;;;;;2.30;0.77;;;;;;;29.20;36.86;101022.97;4873140;29;20048;-72
2022/07/19 01:45:15;;;;;;;1.08;0.50;;;;;;;29.18;35.96;101027.50;4873703;29;20129;-72
2022/07/19 01:47:44;;;;;;;1.33;0.45;;;;;;;29.18;36.23;101022.16;4878939;29;20052;-72
2022/07/19 01:50:14;;;;;;;1.33;0.60;;;;;;;29.14;35.14;101018.78;4870010;29;20118;-73
2022/07/19 01:52:43;;;;;;;1.13;0.60;;;;;;;29.08;35.57;101028.84;4863880;29;20528;-72
2022/07/19 01:55:13;;;;;;;3.40;1.30;;;;;;;29.01;35.03;101014.88;4864764;29;20057;-72
2022/07/19 01:57:42;;;;;;;3.17;1.98;;;;;;;28.87;36.29;101012.81;4864316;29;20496;-73
2022/07/19 02:00:11;;;;;;;2.55;0.63;;;;;;;28.85;36.31;101012.03;4864959;29;20057;-72
2022/07/19 02:02:40;;;;;;;1.00;0.60;;;;;;;28.78;35.57;101007.88;4870557;29;20052;-72
2022/07/19 02:05:09;;;;;;;2.17;0.68;;;;;;;28.75;36.23;101008.88;4867214;29;20045;-72
2022/07/19 02:07:38;;;;;;;1.48;0.60;;;;;;;28.74;36.29;101011.59;4872404;29;20057;-72
2022/07/19 02:10:08;;;;;;;1.45;0.70;;;;;;;28.70;35.99;101010.00;4868391;29;20416;-71
2022/07/19 02:12:39;;;;;;;1.52;0.90;;;;;;;28.66;36.44;101009.28;4864997;29;20635;-72
2022/07/19 02:15:10;;;;;;;2.15;0.80;;;;;;;28.56;36.31;100992.81;4864717;29;20152;-73
2022/07/19 02:17:38;;;;;;;1.50;0.60;;;;;;;28.49;36.03;100996.66;4870746;29;20164;-73
2022/07/19 02:20:08;;;;;;;5.25;0.77;;;;;;;28.41;35.84;100996.09;4871859;29;20041;-73
2022/07/19 02:22:36;;;;;;;0.65;0.43;;;;;;;28.30;35.64;100990.34;4866127;29;20515;-72
2022/07/19 02:25:05;;;;;;;2.60;0.52;;;;;;;28.22;36.45;100989.75;4854542;29;20053;-72
2022/07/19 02:27:34;;;;;;;1.70;0.70;;;;;;;28.15;37.04;100987.38;4853267;29;20821;-73
2022/07/19 02:30:05;;;;;;;1.73;0.60;;;;;;;28.10;36.85;100992.00;4856799;29;20053;-72
2022/07/19 02:32:33;;;;;;;1.95;0.60;;;;;;;28.08;37.00;100995.63;4849544;29;20049;-73
2022/07/19 02:35:02;;;;;;;2.15;0.80;;;;;;;28.03;36.72;101000.28;4861501;29;20678;-73
2022/07/19 02:37:30;;;;;;;2.15;0.73;;;;;;;27.95;38.03;101001.44;4852949;29;20045;-73
2022/07/19 02:39:59;;;;;;;0.93;0.55;;;;;;;27.86;38.08;100995.63;4860195;29;20060;-73
2022/07/19 02:42:28;;;;;;;3.75;0.65;;;;;;;27.77;38.47;101003.00;4856965;29;20053;-74
2022/07/19 02:44:56;;;;;;;4.72;0.70;;;;;;;27.72;37.65;101002.31;4862724;29;20060;-74
2022/07/19 02:47:26;;;;;;;2.70;0.50;;;;;;;27.68;37.70;100992.72;4848633;29;20054;-74
2022/07/19 02:49:55;;;;;;;1.73;0.60;;;;;;;27.61;38.24;100991.22;4852624;29;20125;-74
2022/07/19 02:52:24;;;;;;;1.65;0.70;;;;;;;27.51;39.05;100990.69;4851200;29;20083;-74
2022/07/19 02:54:52;;;;;;;4.78;0.82;;;;;;;27.40;37.65;101000.84;4857890;29;20053;-71
2022/07/19 02:57:24;;;;;;;1.95;0.80;;;;;;;27.29;38.51;100998.59;4851552;29;20077;-74
2022/07/19 02:59:52;;;;;;;4.25;0.70;;;;;;;27.19;39.77;101001.59;4853795;29;20053;-74
2022/07/19 03:02:20;;;;;;;1.98;1.08;;;;;;;27.08;38.53;101002.00;4851612;29;20107;-72
2022/07/19 03:04:51;;;;;;;1.17;0.73;;;;;;;26.99;39.63;101003.16;4855548;29;20054;-73
2022/07/19 03:07:19;;;;;;;2.35;1.42;;;;;;;26.91;40.00;101007.88;4852808;29;20109;-72
2022/07/19 03:09:48;;;;;;;2.92;1.30;;;;;;;26.79;39.61;101017.13;4861252;29;20058;-71
2022/07/19 03:12:16;;;;;;;2.70;0.60;;;;;;;26.70;38.86;101012.13;4859180;29;20588;-72
2022/07/19 03:14:45;;;;;;;2.28;1.05;;;;;;;26.63;40.49;101010.59;4858083;29;20053;-73
2022/07/19 03:17:13;;;;;;;3.92;1.23;;;;;;;26.52;40.58;101009.13;4855053;29;20124;-74
2022/07/19 03:19:42;;;;;;;1.35;0.60;;;;;;;26.40;39.54;101014.84;4858793;29;20041;-73
2022/07/19 03:22:12;;;;;;;2.53;0.90;;;;;;;26.28;41.29;101010.78;4863337;29;20523;-75
2022/07/19 03:24:41;;;;;;;2.40;0.95;;;;;;;26.19;42.45;101011.09;4871061;29;20062;-75
2022/07/19 03:27:09;;;;;;;2.17;1.08;;;;;;;26.10;41.95;101006.94;4873664;29;20090;-74
2022/07/19 03:29:38;;;;;;;3.97;1.50;;;;;;;26.01;43.09;101006.34;4864307;29;20597;-74
2022/07/19 03:32:07;;;;;;;3.55;1.20;;;;;;;25.93;43.25;101009.25;4879663;29;20064;-74
2022/07/19 03:34:35;;;;;;;3.08;0.77;;;;;;;25.85;42.16;101011.22;4881144;29;20084;-74
2022/07/19 03:37:04;;;;;;;0.77;0.55;;;;;;;25.75;41.32;101018.59;4863871;29;20061;-74
2022/07/19 03:39:34;;;;;;;2.08;0.70;;;;;;;25.64;41.22;101016.25;4862347;29;20054;-73
2022/07/19 03:42:03;;;;;;;2.63;0.85;;;;;;;25.54;41.93;101012.13;4883601;29;20045;-74
2022/07/19 03:44:31;;;;;;;1.90;0.98;;;;;;;25.45;42.64;101015.03;4874508;29;20582;-73
2022/07/19 03:47:00;;;;;;;3.08;1.00;;;;;;;25.35;42.13;101016.19;4869001;29;20057;-74
2022/07/19 03:49:28;;;;;;;1.85;1.27;;;;;;;25.25;42.77;101015.59;4873946;29;20060;-72
2022/07/19 03:51:57;;;;;;;3.65;0.80;;;;;;;25.18;43.15;101009.59;4870486;29;20278;-73
2022/07/19 03:54:26;;;;;;;3.83;1.20;;;;;;;25.12;43.17;101008.84;4872231;29;20045;-72
2022/07/19 03:56:56;;;;;;;2.25;1.42;;;;;;;25.03;42.89;101005.50;4872420;29;20049;-74
2022/07/19 03:59:24;;;;;;;4.65;0.75;;;;;;;24.94;43.09;101010.19;4877523;29;20057;-73
2022/07/19 04:01:53;;;;;;;1.45;0.90;;;;;;;24.82;43.64;101012.25;4876589;29;20053;-73
2022/07/19 04:04:22;;;;;;;3.50;1.67;;;;;;;24.74;44.08;101008.94;4884781;29;20056;-73
2022/07/19 04:06:50;;;;;;;2.60;1.55;;;;;;;24.67;43.73;101015.31;4876018;29;20052;-73
2022/07/19 04:09:19;;;;;;;3.45;0.70;;;;;;;24.55;43.26;101018.22;4873338;29;20500;-73
2022/07/19 04:11:47;;;;;;;2.15;0.80;;;;;;;24.42;44.05;101018.50;4875631;29;20568;-74
2022/07/19 04:14:17;;;;;;;1.33;0.70;;;;;;;24.33;44.61;101018.72;4875006;29;20079;-74
2022/07/19 04:16:46;;;;;;;3.35;0.60;;;;;;;24.25;45.06;101015.38;4874850;29;20057;-73
2022/07/19 04:19:14;;;;;;;1.08;0.43;;;;;;;24.16;45.09;101016.44;4878510;29;20076;-72
2022/07/19 04:21:43;;;;;;;1.33;0.50;;;;;;;24.09;44.91;101019.28;4871364;29;20049;-74
2022/07/19 04:24:11;;;;;;;2.83;1.42;;;;;;;24.00;45.71;101021.19;4867014;29;20060;-75
2022/07/19 04:26:40;;;;;;;2.55;1.20;;;;;;;23.94;45.88;101017.84;4872381;29;20075;-72
2022/07/19 04:29:09;;;;;;;1.67;0.70;;;;;;;23.86;45.75;101018.00;4876571;29;20052;-72
2022/07/19 04:31:39;;;;;;;1.45;0.57;;;;;;;23.82;45.85;101021.59;4877440;29;20056;-72
2022/07/19 04:34:07;;;;;;;0.60;0.50;;;;;;;23.74;45.99;101023.53;4870740;29;20209;-71
2022/07/19 04:36:36;;;;;;;2.35;0.80;;;;;;;23.66;46.43;101028.06;4873852;29;20057;-73
2022/07/19 04:39:04;;;;;;;3.33;0.60;;;;;;;23.60;46.27;101034.38;4869640;29;20087;-73
2022/07/19 04:41:33;;;;;;;3.92;0.73;;;;;;;23.53;46.97;101030.13;4874238;29;20052;-72
2022/07/19 04:44:01;;;;;;;1.33;0.70;;;;;;;23.47;46.71;101035.50;4862684;29;20568;-72
2022/07/19 04:46:30;;;;;;;1.92;0.70;;;;;;;23.39;46.73;101036.53;4869384;29;20053;-72
2022/07/19 04:49:00;;;;;;;2.45;0.90;;;;;;;23.24;47.34;101022.75;4871395;29;20110;-72
2022/07/19 04:51:29;;;;;;;4.32;1.00;;;;;;;23.26;47.32;101036.78;4870558;29;20393;-72
2022/07/19 04:53:57;;;;;;;3.08;0.70;;;;;;;23.19;47.36;101042.16;4868963;29;20057;-72
2022/07/19 04:56:26;;;;;;;2.17;0.70;;;;;;;23.09;48.11;101043.25;4874659;29;20076;-72
2022/07/19 04:58:54;;;;;;;1.30;0.90;;;;;;;23.07;48.39;101045.03;4872409;29;20655;-73
2022/07/19 05:01:23;;;;;;;5.43;1.98;;;;;;;23.06;48.75;101045.06;4873259;29;20052;-73
2022/07/19 05:03:51;;;;;;;2.03;0.90;;;;;;;23.02;48.95;101048.63;4873527;29;20367;-72
2022/07/19 05:06:21;;;;;;;1.70;0.80;;;;;;;22.98;48.45;101043.41;4873918;29;20054;-72
2022/07/19 05:08:50;;;;;;;2.35;1.00;;;;;;;22.94;48.73;101040.84;4871183;29;20577;-73
2022/07/19 05:11:18;;;;;;;3.33;0.98;;;;;;;22.88;48.81;101040.94;4862802;29;20053;-77
2022/07/19 05:13:47;;;;;;;3.25;0.90;;;;;;;22.82;49.69;101051.59;4868174;29;20064;-75
2022/07/19 05:16:15;;;;;;;2.25;0.85;;;;;;;22.76;49.20;101048.16;4870658;29;20060;-74
2022/07/19 05:18:44;;;;;;;2.13;0.95;;;;;;;22.71;49.60;101049.13;4871375;29;20499;-73
2022/07/19 05:21:12;;;;;;;2.40;0.82;;;;;;;22.64;49.97;101047.50;4874142;29;20064;-72
2022/07/19 05:23:43;;;;;;;3.85;0.90;;;;;;;22.57;50.19;101046.72;4863705;29;20129;-72
2022/07/19 05:26:12;;;;;;;3.72;1.30;;;;;;;22.52;50.89;101043.28;4857175;29;20053;-73
2022/07/19 05:28:40;;;;;;;2.65;1.48;;;;;;;22.47;50.61;101048.63;4859091;29;20059;-72
2022/07/19 05:31:09;;;;;;;2.75;1.42;;;;;;;22.41;51.09;101043.44;4864503;29;20053;-73
2022/07/19 05:33:37;;;;;;;4.28;1.90;;;;;;;22.36;50.95;101043.50;4852990;29;20058;-73
2022/07/19 05:36:10;;;;;;;3.90;1.70;;;;;;;22.32;51.50;101040.94;4857404;29;20049;-73
2022/07/19 05:38:39;;;;;;;2.50;0.88;;;;;;;22.26;51.18;101041.88;4857086;29;20603;-72
2022/07/19 05:41:10;;;;;;;3.08;1.13;;;;;;;22.19;51.28;101034.91;4844619;29;20462;-73
2022/07/19 05:43:40;;;;;;;2.15;0.90;;;;;;;22.13;51.66;101045.56;4857854;29;20633;-73
2022/07/19 05:46:09;;;;;;;4.63;0.98;;;;;;;22.09;51.97;101046.50;4852730;29;20062;-73
2022/07/19 05:48:37;;;;;;;3.58;1.05;;;;;;;22.01;52.65;101040.44;4858978;29;20059;-73
2022/07/19 05:51:06;;;;;;;3.92;0.80;;;;;;;21.96;52.17;101043.16;4850191;29;20106;-72
2022/07/19 05:53:37;;;;;;;1.80;0.70;;;;;;;21.91;52.75;101039.69;4848231;29;20061;-73
2022/07/19 05:56:06;;;;;;;1.58;0.73;;;;;;;21.86;52.83;101036.25;4851299;29;20496;-74
2022/07/19 05:58:36;;;;;;;1.92;0.80;;;;;;;21.81;53.32;101033.69;4855361;29;20141;-74
2022/07/19 06:01:22;;;;;;;4.97;1.15;;;;;;;21.76;53.64;101030.22;4857905;29;20052;-75
2022/07/19 06:03:52;;;;;;;2.00;1.00;;;;;;;21.64;53.35;101023.34;4860098;29;20054;-74
2022/07/19 06:06:21;;;;;;;2.30;0.80;;;;;;;21.65;53.83;101037.41;4865183;29;20615;-74
2022/07/19 06:08:50;;;;;;;1.90;1.00;;;;;;;21.61;54.20;101035.69;4854518;29;20102;-73
2022/07/19 06:11:19;;;;;;;2.08;0.88;;;;;;;21.55;54.65;101036.63;4859090;29;20053;-73
2022/07/19 06:13:50;;;;;;;0.90;0.60;;;;;;;21.50;54.81;101038.44;4858215;29;20060;-73
2022/07/19 06:16:18;;;;;;;2.75;0.90;;;;;;;21.45;55.02;101032.34;4850837;29;20066;-73
2022/07/19 06:18:47;;;;;;;1.33;0.85;;;;;;;21.40;55.02;101032.41;4860507;29;20073;-73
2022/07/19 06:21:17;;;;;;;1.63;0.95;;;;;;;21.37;55.78;101037.66;4852115;29;20122;-73
2022/07/19 06:23:46;;;;;;;2.53;0.80;;;;;;;21.34;56.01;101040.31;4855278;29;20118;-74
2022/07/19 06:26:15;;;;;;;4.25;1.30;;;;;;;21.28;56.29;101035.13;4853512;29;20061;-73
2022/07/19 06:28:46;;;;;;;2.65;1.17;;;;;;;21.23;56.21;101042.19;4853103;29;20045;-73
2022/07/19 06:31:18;;;;;;;3.47;1.10;;;;;;;21.18;56.96;101033.47;4853599;29;20053;-74
2022/07/19 06:33:48;;;;;;;4.28;1.40;;;;;;;21.13;57.21;101042.28;4851402;29;20395;-74
2022/07/19 06:36:18;;;;;;;5.35;1.35;;;;;;;21.09;57.01;101037.06;4850990;29;20520;-74
2022/07/19 06:38:47;;;;;;;1.88;1.00;;;;;;;21.06;57.38;101037.09;4856001;29;20045;-74
2022/07/19 06:41:16;;;;;;;2.92;0.95;;;;;;;21.05;57.67;101041.50;4861574;29;20057;-73
2022/07/19 06:43:45;;;;;;;3.05;1.00;;;;;;;21.03;58.01;101043.28;4855496;29;20046;-74
2022/07/19 06:46:16;;;;;;;2.97;1.00;;;;;;;21.01;57.80;101039.78;4855145;29;20049;-74
2022/07/19 06:48:44;;;;;;;1.50;1.02;;;;;;;20.99;58.52;101041.53;4853388;29;20571;-73
2022/07/19 06:51:13;;;;;;;1.13;0.90;;;;;;;20.95;57.93;101041.59;4857940;29;20078;-74
2022/07/19 06:53:41;;;;;;;2.60;1.05;;;;;;;20.89;58.01;101042.50;4856815;29;20061;-74
2022/07/19 06:56:10;;;;;;;3.10;0.90;;;;;;;20.83;58.36;101046.06;4856651;29;20041;-73
2022/07/19 06:58:39;;;;;;;1.05;0.80;;;;;;;20.78;58.42;101047.00;4857514;29;20046;-74
2022/07/19 07:01:07;;;;;;;2.15;0.95;;;;;;;20.71;58.49;101046.16;4852732;29;20056;-74
2022/07/19 07:03:38;;;;;;;3.00;1.00;;;;;;;20.67;60.05;101050.56;4853071;29;20609;-73
2022/07/19 07:06:06;;;;;;;2.60;0.90;;;;;;;20.61;59.81;101050.59;4847380;29;20052;-74
2022/07/19 07:08:35;;;;;;;2.38;1.00;;;;;;;20.57;59.40;101042.75;4857060;29;20619;-73
2022/07/19 07:11:04;;;;;;;1.88;0.85;;;;;;;20.50;59.77;101044.50;4855917;29;20086;-73
2022/07/19 07:13:32;;;;;;;2.53;0.98;;;;;;;20.46;60.15;101045.44;4852463;29;20062;-74
2022/07/19 07:16:01;;;;;;;2.97;0.90;;;;;;;20.43;60.39;101034.94;4857635;29;20049;-74
2022/07/19 07:18:29;;;;;;;2.03;0.85;;;;;;;20.40;60.13;101042.84;4853073;29;20060;-74
2022/07/19 07:21:01;;;;;;;2.50;1.17;;;;;;;20.34;60.48;101040.25;4854364;29;20435;-74
2022/07/19 07:23:29;;;;;;;2.88;1.13;;;;;;;20.24;60.72;101042.94;4862714;28;20100;-74
2022/07/19 07:25:58;;;;;;;1.00;0.75;;;;;;;20.19;61.72;101055.22;4871704;29;20061;-75
2022/07/19 07:28:26;;;;;;;1.50;0.98;;;;;;;20.13;61.46;101047.38;4873674;29;20049;-74
2022/07/19 07:30:55;;;;;;;2.55;1.80;;;;;;;20.09;61.73;101050.91;4868322;29;20053;-74
2022/07/19 07:33:23;;;;;;;2.60;0.95;;;;;;;20.05;61.77;101054.44;4866676;29;20053;-74
2022/07/19 07:35:52;;;;;;;2.97;1.33;;;;;;;20.01;61.37;101052.69;4866305;29;20492;-74
2022/07/19 07:38:22;;;;;;;1.65;1.00;;;;;;;19.97;62.00;101043.94;4874936;29;20047;-74
2022/07/19 07:40:51;;;;;;;2.88;1.20;;;;;;;19.92;62.25;101044.84;4884474;29;20075;-74
2022/07/19 07:43:19;;;;;;;2.88;1.05;;;;;;;19.86;62.30;101037.88;4875227;29;20507;-74
2022/07/19 07:45:48;;;;;;;4.82;1.20;;;;;;;19.81;62.69;101045.78;4869544;29;20136;-74
2022/07/19 07:48:16;;;;;;;1.90;1.10;;;;;;;19.78;62.67;101051.03;4873935;29;20053;-73
2022/07/19 07:50:45;;;;;;;2.38;0.90;;;;;;;19.71;62.11;101037.94;4867240;29;20496;-73
2022/07/19 07:53:13;;;;;;;2.63;0.88;;;;;;;19.68;63.04;101044.03;4866750;29;20057;-74
2022/07/19 07:55:44;;;;;;;4.93;1.10;;;;;;;19.63;63.51;101043.16;4867619;29;20492;-74
2022/07/19 07:58:13;;;;;;;2.78;1.05;;;;;;;19.58;64.27;101044.94;4873840;29;20057;-73
2022/07/19 08:00:42;;;;;;;2.05;0.90;;;;;;;19.54;63.95;101045.81;4871204;29;20125;-74
2022/07/19 08:03:11;;;;;;;2.08;0.90;;;;;;;19.51;63.89;101040.59;4873014;29;20560;-73
2022/07/19 08:05:40;;;;;;;2.60;1.10;;;;;;;19.45;64.74;101037.09;4867530;29;20132;-74
2022/07/19 08:08:08;;;;;;;2.50;1.00;;;;;;;19.42;64.80;101041.47;4875835;29;20080;-73
2022/07/19 08:10:37;;;;;;;3.03;1.05;;;;;;;19.37;65.41;101033.63;4864024;29;20071;-72
2022/07/19 08:13:07;;;;;;;2.90;1.17;;;;;;;19.32;64.68;101035.38;4868410;29;20049;-74
2022/07/19 08:15:36;;;;;;;1.67;1.00;;;;;;;19.31;64.58;101033.66;4873117;29;20084;-74
2022/07/19 08:18:05;;;;;;;3.58;0.90;;;;;;;19.31;64.54;101031.03;4872621;29;20064;-74
2022/07/19 08:20:34;;;;;;;3.53;0.98;;;;;;;19.28;65.52;101033.63;4874466;29;20053;-74
2022/07/19 08:23:02;;;;;;;1.85;1.10;;;;;;;19.28;64.85;101038.88;4877848;28;20554;-74
2022/07/19 08:25:32;;;;;;;2.05;1.35;;;;;;;19.23;65.00;101038.91;4872451;29;20049;-73
2022/07/19 08:28:00;;;;;;;1.63;1.10;;;;;;;19.23;64.91;101043.28;4873006;29;20049;-74
2022/07/19 08:30:31;;;;;;;2.80;1.30;;;;;;;19.19;64.44;101049.38;4874230;29;20153;-74
2022/07/19 08:33:00;;;;;;;3.28;1.13;;;;;;;19.17;64.37;101043.28;4868947;29;20536;-73
2022/07/19 08:35:29;;;;;;;1.75;0.80;;;;;;;19.12;64.20;101047.66;4867441;29;20077;-74
2022/07/19 08:37:57;;;;;;;6.00;1.08;;;;;;;19.11;65.26;101051.16;4865279;29;20053;-74
2022/07/19 08:40:26;;;;;;;2.80;1.00;;;;;;;19.07;67.08;101046.78;4867934;29;20057;-74
2022/07/19 08:42:55;;;;;;;2.55;1.10;;;;;;;19.03;67.49;101044.19;4870332;29;20057;-74
2022/07/19 08:45:25;;;;;;;3.97;1.00;;;;;;;19.00;65.92;101049.41;4871555;29;20078;-74
2022/07/19 08:47:57;;;;;;;1.58;1.20;;;;;;;18.98;65.12;101056.41;4872005;29;20048;-73
2022/07/19 08:50:26;;;;;;;;;;;;;;;18.96;64.98;101047.66;4883820;29;20053;-72
2022/07/19 08:52:56;;;;;;;3.53;1.20;;;;;;;18.95;66.07;101059.03;4873226;29;19924;-73
2022/07/19 08:55:25;;;;;;;1.95;1.08;;;;;;;18.91;64.71;101053.78;4881120;29;20530;-73
2022/07/19 08:58:01;;;;;;;3.00;1.20;;;;;;;18.85;67.27;101057.28;4880997;29;20586;-73
2022/07/19 09:00:30;;;;;;;2.53;1.20;;;;;;;18.81;67.63;101052.94;4874823;29;20057;-73
2022/07/19 09:03:02;;;;;;;2.22;0.98;;;;;;;18.78;67.06;101058.16;4874852;29;20602;-73
2022/07/19 09:05:31;;;;;;;2.10;1.10;;;;;;;18.75;66.37;101058.13;4876223;29;20057;-73
2022/07/19 09:08:09;;;;;;;2.38;1.00;;;;;;;18.70;66.01;101059.88;4871018;29;20056;-73
2022/07/19 09:10:39;;;;;;;2.05;0.90;;;;;;;18.67;66.56;101063.38;4874043;29;20060;-73
2022/07/19 09:13:10;;;;;;;2.88;1.10;;;;;;;18.65;66.97;101066.88;4870723;29;20491;-74
2022/07/19 09:15:50;;;;;;;1.75;1.00;;;;;;;18.59;67.69;101062.47;4872797;29;20563;-73
2022/07/19 09:18:22;;;;;;;2.42;1.08;;;;;;;18.56;68.38;101059.84;4876889;29;20076;-74
2022/07/19 09:20:52;;;;;;;3.13;1.17;;;;;;;18.54;68.43;101058.97;4872961;29;20052;-73
2022/07/19 09:23:22;;;;;;;2.38;1.40;;;;;;;18.52;68.34;101055.47;4868892;29;20090;-73
2022/07/19 09:25:52;;;;;;;2.05;1.15;;;;;;;18.52;68.00;101058.09;4856810;29;20049;-73
2022/07/19 09:28:22;;;;;;;2.55;1.20;;;;;;;18.49;67.07;101064.22;4856996;29;20057;-73
2022/07/19 09:30:53;;;;;;;1.40;0.93;;;;;;;18.47;68.03;101058.09;4854810;29;20482;-73
2022/07/19 09:33:25;;;;;;;2.30;1.13;;;;;;;18.45;67.31;101054.59;4859627;29;20054;-74
2022/07/19 09:35:56;;;;;;;2.92;1.13;;;;;;;18.43;68.77;101053.72;4855160;29;20068;-74
2022/07/19 09:38:28;;;;;;;1.23;1.00;;;;;;;18.41;68.31;101052.81;4853908;29;20109;-73
2022/07/19 09:41:11;;;;;;;2.85;1.13;;;;;;;18.42;67.64;101057.22;4868957;29;20049;-74
2022/07/19 09:43:53;;;;;;;4.18;1.13;;;;;;;18.45;67.73;101057.22;4855978;29;20519;-74
2022/07/19 09:46:33;;;;;;;1.25;1.08;;;;;;;18.46;67.39;101053.69;4856214;29;20560;-73
2022/07/19 09:49:13;;;;;;;3.85;1.52;;;;;;;18.49;67.40;101055.47;4855830;29;20049;-73
2022/07/19 09:51:43;;;;;;;2.87;1.13;;;;;;;18.50;67.05;101068.56;4865245;29;20057;-73
2022/07/19 09:54:14;;;;;;;2.42;1.23;;;;;;;18.51;67.09;101065.09;4860807;29;20556;-73
2022/07/19 09:56:44;;;;;;;2.30;1.02;;;;;;;18.48;67.07;101059.81;4861159;29;20532;-73
2022/07/19 09:59:13;;;;;;;3.33;1.00;;;;;;;18.49;66.96;101061.59;4849588;29;20176;-73
2022/07/19 10:01:42;;;;;;;1.92;1.10;;;;;;;18.48;67.36;101065.06;4859011;29;20055;-73
2022/07/19 10:04:14;;;;;;;2.63;1.08;;;;;;;18.47;67.64;101063.31;4851706;29;20105;-73
2022/07/19 10:06:44;;;;;;;3.40;1.10;;;;;;;18.47;67.40;101068.56;4854994;29;20436;-74
2022/07/19 10:09:14;;;;;;;2.55;1.13;;;;;;;18.46;67.58;101071.19;4842591;29;20398;-75
2022/07/19 10:11:43;;;;;;;2.33;1.17;;;;;;;18.42;67.55;101071.19;4856820;29;20045;-73
2022/07/19 10:14:12;;;;;;;3.65;1.30;;;;;;;18.40;67.48;101077.28;4857259;29;20057;-73
2022/07/19 10:17:04;;;;;;;3.63;1.05;;;;;;;18.38;67.50;101079.91;4856103;29;20603;-74
2022/07/19 10:19:44;;;;;;;1.88;1.15;;;;;;;18.37;67.36;101074.66;4858075;29;20561;-73
2022/07/19 10:22:13;;;;;;;2.00;1.10;;;;;;;18.35;67.24;101086.91;4854605;29;20045;-73
2022/07/19 10:24:53;;;;;;;1.20;1.10;;;;;;;18.30;67.57;101084.25;4870417;29;20061;-73
2022/07/19 10:27:38;;;;;;;4.72;1.55;;;;;;;18.27;67.91;101079.00;4888061;29;20056;-73
2022/07/19 10:30:25;;;;;;;2.13;1.35;;;;;;;18.23;68.55;101073.75;4881106;29;20121;-73
2022/07/19 10:32:56;;;;;;;2.85;1.27;;;;;;;18.21;69.02;101081.63;4872601;29;20557;-74
2022/07/19 10:35:31;;;;;;;4.53;1.20;;;;;;;18.18;71.70;101082.44;4871262;29;20423;-73
2022/07/19 10:38:10;;;;;;;2.05;1.20;;;;;;;18.14;70.78;101087.66;4878433;29;20045;-72
2022/07/19 10:40:42;;;;;;;3.85;1.20;;;;;;;18.08;70.37;101088.53;4884836;29;20212;-72
2022/07/19 10:43:25;;;;;;;1.75;1.13;;;;;;;18.03;72.31;101092.88;4873270;29;20055;-73
2022/07/19 10:46:13;;;;;;;4.57;1.67;;;;;;;17.97;71.38;101088.47;4877021;29;20092;-72
2022/07/19 10:48:43;;;;;;;1.42;0.98;;;;;;;17.97;72.13;101082.38;4876526;29;20053;-73
2022/07/19 10:51:28;;;;;;;1.42;1.00;;;;;;;17.94;72.21;101082.38;4875930;29;20114;-74
2022/07/19 10:54:10;;;;;;;4.00;1.30;;;;;;;17.91;72.10;101080.63;4872309;29;20056;-73
2022/07/19 10:56:44;;;;;;;7.00;1.45;;;;;;;17.88;71.56;101083.22;4877058;29;20053;-73
2022/07/19 10:59:14;;;;;;;3.63;1.30;;;;;;;17.86;70.21;101089.31;4863099;29;20511;-72
2022/07/19 11:01:59;;;;;;;4.28;1.20;;;;;;;17.82;70.48;101077.06;4867340;29;20049;-73
2022/07/19 11:04:30;;;;;;;1.50;1.10;;;;;;;17.80;70.97;101074.44;4872867;29;20037;-73
2022/07/19 11:07:18;;;;;;;2.30;1.25;;;;;;;17.79;70.71;101078.75;4870666;29;20399;-74
2022/07/19 11:09:49;;;;;;;2.25;1.42;;;;;;;17.77;71.41;101077.91;4872558;29;20049;-74
2022/07/19 11:12:32;;;;;;;3.28;1.60;;;;;;;17.76;71.66;101077.88;4871647;29;20060;-74
2022/07/19 11:15:03;;;;;;;2.30;1.20;;;;;;;17.74;70.93;101075.25;4870840;29;20086;-73
2022/07/19 11:17:32;;;;;;;2.25;1.08;;;;;;;17.72;71.27;101076.97;4876671;29;20603;-73
2022/07/19 11:20:08;;;;;;;3.08;1.13;;;;;;;17.68;70.26;101076.97;4874547;29;20085;-73
2022/07/19 11:22:40;;;;;;;2.53;1.60;;;;;;;17.61;72.28;101075.19;4869597;29;20053;-73
2022/07/19 11:25:10;;;;;;;2.53;1.42;;;;;;;17.55;73.44;101068.19;4859048;29;20054;-73
2022/07/19 11:27:41;;;;;;;5.28;1.20;;;;;;;17.49;73.16;101069.00;4854875;29;20056;-73
2022/07/19 11:30:11;;;;;;;2.15;1.15;;;;;;;17.46;72.60;101073.38;4855924;29;20045;-73
2022/07/19 11:32:43;;;;;;;1.75;1.15;;;;;;;17.44;71.40;101075.97;4848152;29;20535;-74
2022/07/19 11:35:14;;;;;;;1.73;1.10;;;;;;;17.41;71.90;101075.06;4843753;29;20517;-73
2022/07/19 11:37:44;;;;;;;2.90;1.60;;;;;;;17.38;72.00;101076.81;4846879;29;20061;-74